Time;durP1;ratioP1;P1;durP2;ratioP2;P2;SDS_P1;SDS_P2;PMS_P1;PMS_P2;Temp;Humidity;BMP_temperature;BMP_pressure;BME280_temperature;BME280_humidity;BME280_pressure;Samples;Min_cycle;Max_cycle;Signal;HPM_P1;HPM_P2
2022/03/29 00:00:24;;;;;;;10.88;9.60;;;18.10;50.50;;;;;;4874692;28;94454;-66
2022/03/29 00:02:50;;;;;;;10.60;9.50;;;18.10;50.40;;;;;;4874912;28;92788;-65
2022/03/29 00:05:15;;;;;;;11.25;10.10;;;18.10;50.40;;;;;;4875138;28;92538;-66
2022/03/29 00:07:41;;;;;;;9.98;8.98;;;18.10;50.50;;;;;;4874360;28;93137;-67
2022/03/29 00:10:07;;;;;;;11.45;9.98;;;18.10;50.50;;;;;;4872768;28;96391;-66
2022/03/29 00:12:34;;;;;;;10.27;9.18;;;18.10;50.40;;;;;;4873205;28;96358;-66
2022/03/29 00:15:01;;;;;;;10.68;9.40;;;18.10;50.40;;;;;;4873839;28;92876;-65
2022/03/29 00:17:26;;;;;;;11.57;9.82;;;18.10;50.40;;;;;;4875481;28;92784;-66
2022/03/29 00:19:52;;;;;;;10.80;9.70;;;18.10;50.50;;;;;;4873664;28;93141;-66
2022/03/29 00:22:17;;;;;;;11.25;9.65;;;18.10;50.50;;;;;;4873155;28;103821;-66
2022/03/29 00:24:43;;;;;;;11.57;9.70;;;18.10;50.40;;;;;;4874904;28;92937;-67
2022/03/29 00:27:09;;;;;;;12.00;10.00;;;18.10;50.40;;;;;;4875369;28;92054;-66
2022/03/29 00:29:37;;;;;;;11.07;9.82;;;18.10;50.50;;;;;;4873672;28;94216;-66
2022/03/29 00:32:03;;;;;;;11.88;10.18;;;18.10;50.50;;;;;;4874348;28;93860;-65
2022/03/29 00:34:29;;;;;;;11.80;9.93;;;18.10;50.40;;;;;;4872802;28;95292;-66
2022/03/29 00:36:54;;;;;;;11.07;9.88;;;18.00;50.30;;;;;;4874362;28;92576;-66
2022/03/29 00:39:20;;;;;;;11.05;9.95;;;18.00;50.30;;;;;;4874779;28;93230;-66
2022/03/29 00:41:45;;;;;;;12.40;10.07;;;18.00;50.40;;;;;;4856368;28;99791;-67
2022/03/29 00:44:15;;;;;;;10.68;9.57;;;18.10;50.40;;;;;;4874041;28;92755;-66
2022/03/29 00:46:40;;;;;;;10.80;9.70;;;18.00;50.40;;;;;;4874827;28;92543;-65
2022/03/29 00:49:07;;;;;;;12.05;10.57;;;18.00;50.30;;;;;;4874382;28;92962;-66
2022/03/29 00:51:35;;;;;;;11.25;9.68;;;18.00;50.30;;;;;;4874560;28;91669;-66
2022/03/29 00:54:01;;;;;;;11.20;9.75;;;18.00;50.30;;;;;;4875281;28;92748;-66
2022/03/29 00:56:27;;;;;;;10.98;9.90;;;18.00;50.30;;;;;;4875214;28;93025;-65
2022/03/29 00:58:52;;;;;;;11.45;10.07;;;18.00;50.30;;;;;;4873585;28;95524;-66
2022/03/29 01:01:18;;;;;;;11.88;10.50;;;18.00;50.30;;;;;;4873411;28;95277;-66
2022/03/29 01:03:45;;;;;;;10.77;9.68;;;18.00;50.30;;;;;;4873807;28;92535;-66
2022/03/29 01:06:11;;;;;;;12.35;10.00;;;18.00;50.30;;;;;;4874980;28;92547;-68
2022/03/29 01:08:37;;;;;;;11.27;10.10;;;18.00;50.30;;;;;;4873491;28;93666;-66
2022/03/29 01:11:06;;;;;;;10.77;9.68;;;18.00;50.30;;;;;;4872790;28;93557;-66
2022/03/29 01:13:32;;;;;;;11.35;10.07;;;18.00;50.30;;;;;;4873760;28;92981;-66
2022/03/29 01:17:38;;;;;;;10.80;9.70;;;18.00;50.30;;;;;;4873533;28;92296;-66
2022/03/29 01:18:47;;;;;;;10.65;9.55;;;18.00;50.30;;;;;;4873073;28;94661;-66
2022/03/29 01:21:20;;;;;;;10.82;9.73;;;18.00;50.30;;;;;;4873637;28;93479;-66
2022/03/29 01:23:47;;;;;;;12.45;10.45;;;18.00;50.30;;;;;;4872807;28;94939;-66
2022/03/29 01:26:16;;;;;;;12.20;10.02;;;17.90;50.20;;;;;;4873359;28;92612;-66
2022/03/29 01:28:43;;;;;;;11.68;10.00;;;17.90;50.20;;;;;;4872859;28;95202;-66
2022/03/29 01:31:11;;;;;;;11.20;9.75;;;17.90;50.20;;;;;;4873583;28;93259;-66
2022/03/29 01:33:37;;;;;;;11.50;9.90;;;17.90;50.20;;;;;;4873907;28;94267;-66
2022/03/29 01:36:02;;;;;;;12.57;10.27;;;17.90;50.20;;;;;;4873462;28;92860;-66
2022/03/29 01:38:28;;;;;;;12.57;10.43;;;17.90;50.10;;;;;;4873613;28;94651;-66
2022/03/29 01:41:05;;;;;;;12.98;10.43;;;17.90;50.20;;;;;;4872150;28;96308;-66
2022/03/29 01:43:34;;;;;;;10.95;9.77;;;17.90;50.10;;;;;;4876856;28;92862;-66
2022/03/29 01:45:59;;;;;;;11.30;10.10;;;17.90;50.10;;;;;;4876916;28;93065;-66
2022/03/29 01:48:26;;;;;;;10.70;9.60;;;17.90;50.20;;;;;;4873696;28;95494;-66
2022/03/29 01:50:51;;;;;;;11.40;9.85;;;17.90;50.10;;;;;;4876703;28;95244;-66
2022/03/29 01:53:29;;;;;;;12.40;10.35;;;17.90;50.10;;;;;;4876716;28;93122;-66
2022/03/29 01:56:00;;;;;;;12.07;10.40;;;17.90;50.00;;;;;;4876634;28;92458;-66
2022/03/29 01:58:26;;;;;;;12.57;10.20;;;17.90;50.10;;;;;;4875580;28;93329;-65
2022/03/29 02:00:52;;;;;;;13.38;10.55;;;17.90;50.10;;;;;;4875799;28;93000;-66
2022/03/29 02:03:18;;;;;;;11.20;9.80;;;17.90;50.00;;;;;;4876408;28;92593;-66
2022/03/29 02:05:44;;;;;;;11.80;10.52;;;17.80;50.10;;;;;;4876806;28;91842;-66
2022/03/29 02:08:09;;;;;;;11.55;9.82;;;17.80;50.10;;;;;;4876105;28;93697;-66
2022/03/29 02:10:35;;;;;;;11.30;9.63;;;17.90;50.10;;;;;;4876985;28;93514;-66
2022/03/29 02:13:01;;;;;;;11.18;9.95;;;17.80;50.00;;;;;;4875149;28;95197;-66
2022/03/29 02:15:27;;;;;;;12.48;10.60;;;17.80;50.00;;;;;;4876689;28;92870;-66
2022/03/29 02:17:53;;;;;;;11.80;9.93;;;17.80;50.00;;;;;;4875412;28;94603;-66
2022/03/29 02:20:21;;;;;;;11.52;9.82;;;17.80;50.00;;;;;;4875314;28;92848;-66
2022/03/29 02:22:46;;;;;;;11.60;9.57;;;17.80;50.00;;;;;;4876740;28;92540;-66
2022/03/29 02:25:13;;;;;;;12.32;9.88;;;17.80;50.00;;;;;;4876626;28;92962;-66
2022/03/29 02:27:41;;;;;;;12.13;10.23;;;17.80;49.90;;;;;;4876165;28;94275;-65
2022/03/29 02:30:10;;;;;;;11.68;10.05;;;17.80;50.00;;;;;;4876718;28;93821;-65
2022/03/29 02:32:35;;;;;;;12.43;9.88;;;17.80;49.90;;;;;;4875446;28;92641;-67
2022/03/29 02:35:01;;;;;;;11.93;10.57;;;17.80;49.90;;;;;;4877117;28;92569;-66
2022/03/29 02:37:27;;;;;;;12.02;9.90;;;17.80;50.00;;;;;;4874327;28;95536;-66
2022/03/29 02:39:52;;;;;;;11.90;10.07;;;17.80;50.00;;;;;;4875778;28;95182;-66
2022/03/29 02:42:19;;;;;;;11.05;9.65;;;17.80;49.90;;;;;;4876397;28;93058;-65
2022/03/29 02:44:44;;;;;;;12.38;10.13;;;17.80;50.00;;;;;;4875656;28;92509;-66
2022/03/29 02:47:10;;;;;;;11.63;10.00;;;17.80;49.90;;;;;;4875873;28;100934;-66
2022/03/29 02:49:36;;;;;;;11.32;10.13;;;17.80;49.90;;;;;;4875129;28;93849;-66
2022/03/29 02:52:02;;;;;;;12.70;10.35;;;17.70;49.80;;;;;;4874861;28;92880;-65
2022/03/29 02:54:28;;;;;;;11.85;9.38;;;17.70;49.80;;;;;;4874527;28;92239;-68
2022/03/29 02:56:54;;;;;;;11.85;9.77;;;17.80;49.90;;;;;;4875356;28;94214;-65
2022/03/29 02:59:20;;;;;;;12.82;10.40;;;17.70;49.90;;;;;;4875871;28;92738;-66
2022/03/29 03:01:46;;;;;;;13.00;10.48;;;17.70;49.80;;;;;;4874076;28;95304;-66
2022/03/29 03:04:13;;;;;;;11.45;10.07;;;17.70;49.80;;;;;;4875281;28;93119;-66
2022/03/29 03:06:42;;;;;;;13.00;10.75;;;17.70;49.80;;;;;;4875122;28;93624;-66
2022/03/29 03:09:08;;;;;;;12.70;10.60;;;17.70;49.80;;;;;;4876247;28;92754;-66
2022/03/29 03:11:35;;;;;;;12.27;9.85;;;17.70;49.80;;;;;;4875337;28;92943;-66
2022/03/29 03:14:01;;;;;;;13.23;10.38;;;17.70;49.80;;;;;;4875995;28;92955;-66
2022/03/29 04:20:40;;;;;;;11.77;10.18;;;17.60;49.70;;;;;;4910842;28;94435;-68
2022/03/29 04:23:07;;;;;;;12.48;10.80;;;17.60;49.80;;;;;;4914862;28;92888;-66
2022/03/29 04:25:33;;;;;;;12.65;10.65;;;17.50;49.60;;;;;;4912506;28;96829;-65
2022/03/29 04:28:00;;;;;;;12.10;10.30;;;17.50;49.60;;;;;;4914689;28;95049;-66
2022/03/29 04:30:26;;;;;;;12.52;10.02;;;17.50;49.70;;;;;;4914287;28;92602;-66
2022/03/29 04:32:54;;;;;;;11.90;10.43;;;17.50;49.60;;;;;;4896501;28;92716;-65
2022/03/29 04:35:20;;;;;;;13.40;11.07;;;17.60;49.70;;;;;;4915933;28;93256;-66
2022/03/29 04:37:46;;;;;;;12.98;10.30;;;17.60;49.70;;;;;;4915813;28;92925;-65
2022/03/29 04:40:12;;;;;;;13.45;10.63;;;17.50;49.60;;;;;;4916609;28;92547;-66
2022/03/29 04:42:48;;;;;;;11.98;10.05;;;17.50;49.60;;;;;;4915415;28;92322;-65
2022/03/29 04:45:16;;;;;;;12.73;10.05;;;17.50;49.60;;;;;;4913818;28;93022;-66
2022/03/29 04:47:43;;;;;;;13.60;10.85;;;17.50;49.60;;;;;;4914766;28;94076;-68
2022/03/29 04:50:11;;;;;;;12.18;10.20;;;17.50;49.60;;;;;;4913131;28;95419;-66
2022/03/29 04:52:39;;;;;;;12.45;10.43;;;17.50;49.50;;;;;;4914895;28;93012;-65
2022/03/29 04:55:06;;;;;;;12.73;10.57;;;17.50;49.60;;;;;;4914508;28;95139;-66
2022/03/29 04:57:32;;;;;;;12.15;10.65;;;17.50;49.60;;;;;;4913867;28;94308;-66
2022/03/29 04:59:58;;;;;;;12.48;10.50;;;17.50;49.60;;;;;;4914767;28;96153;-67
2022/03/29 05:02:24;;;;;;;12.30;10.50;;;17.50;49.50;;;;;;4915484;28;92564;-66
2022/03/29 05:04:51;;;;;;;12.32;10.65;;;17.50;49.50;;;;;;4915547;28;94430;-66
2022/03/29 05:07:17;;;;;;;11.43;9.88;;;17.50;49.50;;;;;;4916627;28;94129;-66
2022/03/29 05:09:43;;;;;;;12.63;10.45;;;17.50;49.40;;;;;;4901321;28;92550;-65
2022/03/29 05:12:09;;;;;;;12.13;10.52;;;17.50;49.50;;;;;;4915434;28;92424;-65
2022/03/29 05:14:36;;;;;;;12.38;10.35;;;17.50;49.50;;;;;;4913342;28;95440;-65
2022/03/29 05:17:02;;;;;;;11.63;9.95;;;17.50;49.50;;;;;;4915760;28;95818;-65
2022/03/29 05:19:28;;;;;;;12.13;10.32;;;17.50;49.50;;;;;;4917507;28;92590;-65
2022/03/29 05:21:54;;;;;;;10.93;9.73;;;17.50;49.50;;;;;;4917792;28;92514;-65
2022/03/29 05:24:20;;;;;;;11.20;9.82;;;17.40;49.50;;;;;;4917701;28;92993;-66
2022/03/29 05:26:45;;;;;;;11.15;9.95;;;17.40;49.50;;;;;;4917939;28;94480;-65
2022/03/29 05:29:12;;;;;;;11.95;9.85;;;17.40;49.40;;;;;;4918430;28;92605;-65
2022/03/29 05:31:40;;;;;;;12.52;9.95;;;17.50;49.50;;;;;;4918415;28;91754;-65
2022/03/29 05:34:06;;;;;;;11.50;9.82;;;17.40;49.40;;;;;;4916826;28;101324;-65
2022/03/29 05:36:32;;;;;;;11.75;10.23;;;17.40;49.50;;;;;;4917070;28;93253;-65
2022/03/29 05:38:57;;;;;;;11.90;9.95;;;17.40;49.50;;;;;;4915165;28;94783;-64
2022/03/29 05:41:23;;;;;;;91.07;12.88;;;17.40;49.50;;;;;;4916602;28;94792;-65
2022/03/29 05:43:49;;;;;;;55.85;11.65;;;17.50;49.70;;;;;;4915803;28;94068;-64
2022/03/29 05:49:01;;;;;;;29.92;10.18;;;17.50;49.80;;;;;;4915691;28;92928;-64
2022/03/29 05:51:29;;;;;;;23.88;10.55;;;17.50;49.70;;;;;;4918598;28;92894;-65
2022/03/29 05:53:56;;;;;;;25.17;9.98;;;17.50;49.60;;;;;;4916948;28;94842;-65
2022/03/29 05:56:22;;;;;;;32.40;11.07;;;17.50;49.70;;;;;;4916010;28;93452;-64
2022/03/29 05:58:50;;;;;;;24.63;10.63;;;17.50;49.70;;;;;;4915393;28;93131;-65
2022/03/29 06:01:18;;;;;;;20.48;9.98;;;17.50;49.70;;;;;;4914724;28;92520;-65
2022/03/29 06:03:44;;;;;;;21.30;9.95;;;17.50;49.90;;;;;;4913626;28;96759;-65
2022/03/29 06:06:09;;;;;;;18.00;9.15;;;17.50;50.00;;;;;;4914372;28;96426;-66
2022/03/29 06:08:35;;;;;;;15.60;8.80;;;17.50;50.00;;;;;;4927241;28;93908;-71
2022/03/29 06:11:01;;;;;;;16.50;9.23;;;17.60;50.10;;;;;;4916811;28;92450;-64
2022/03/29 06:13:27;;;;;;;13.65;9.25;;;17.60;50.00;;;;;;4915661;28;93796;-66
2022/03/29 06:15:53;;;;;;;20.25;9.15;;;17.70;50.00;;;;;;4916276;28;92917;-65
2022/03/29 06:18:20;;;;;;;25.17;8.40;;;17.80;50.40;;;;;;4916173;28;92518;-65
2022/03/29 06:20:47;;;;;;;23.30;8.98;;;18.00;50.50;;;;;;4916816;28;91980;-69
2022/03/29 06:23:13;;;;;;;15.68;8.93;;;18.20;50.40;;;;;;4907211;28;94586;-67
2022/03/29 06:25:39;;;;;;;20.95;8.05;;;18.50;50.20;;;;;;4918470;28;93385;-65
2022/03/29 06:28:06;;;;;;;18.63;8.15;;;18.60;50.30;;;;;;4913217;28;95533;-66
2022/03/29 06:30:31;;;;;;;18.08;7.90;;;18.70;50.40;;;;;;4914573;28;92620;-66
2022/03/29 06:32:59;;;;;;;19.30;7.88;;;18.60;50.10;;;;;;4914638;28;93009;-68
2022/03/29 06:35:26;;;;;;;16.17;8.15;;;18.60;50.10;;;;;;4916314;28;93198;-67
2022/03/29 06:37:56;;;;;;;12.15;7.85;;;18.60;50.30;;;;;;4916595;28;92459;-67
2022/03/29 06:40:25;;;;;;;17.58;7.93;;;18.50;50.50;;;;;;4915817;28;92940;-66
2022/03/29 06:42:52;;;;;;;19.00;8.02;;;18.50;50.90;;;;;;4916519;28;92870;-66
2022/03/29 06:45:18;;;;;;;17.63;7.80;;;18.50;51.30;;;;;;4916607;28;92914;-65
2022/03/29 06:47:44;;;;;;;18.55;7.82;;;18.50;51.40;;;;;;4918709;28;92685;-67
2022/03/29 06:50:11;;;;;;;22.90;7.85;;;18.50;51.70;;;;;;4917875;28;92574;-66
2022/03/29 06:52:37;;;;;;;17.55;7.38;;;18.50;51.90;;;;;;4914539;28;95892;-66
2022/03/29 06:55:08;;;;;;;14.80;7.45;;;18.50;52.20;;;;;;4915020;28;96269;-66
2022/03/29 06:57:33;;;;;;;16.42;8.02;;;18.40;52.30;;;;;;4915112;28;92611;-67
2022/03/29 06:59:59;;;;;;;13.55;8.25;;;18.40;53.60;;;;;;4914972;28;92655;-66
2022/03/29 07:02:25;;;;;;;13.68;8.55;;;18.50;54.70;;;;;;4895765;28;94394;-66
2022/03/29 07:04:51;;;;;;;16.42;8.48;;;18.40;55.60;;;;;;4915780;28;92991;-67
2022/03/29 07:07:17;;;;;;;14.85;7.95;;;18.40;56.30;;;;;;4913695;28;92977;-66
2022/03/29 07:12:30;;;;;;;16.90;9.23;;;18.40;57.80;;;;;;4913236;28;92957;-67
2022/03/29 07:14:57;;;;;;;13.70;9.10;;;18.40;58.20;;;;;;4914067;28;93483;-67
2022/03/29 07:17:23;;;;;;;13.65;9.20;;;18.40;58.50;;;;;;4912429;28;95093;-69
2022/03/29 07:19:48;;;;;;;12.65;8.60;;;18.40;58.90;;;;;;4912863;28;92448;-66
2022/03/29 07:22:14;;;;;;;14.30;8.27;;;18.40;58.80;;;;;;4912365;28;93046;-66
2022/03/29 07:24:40;;;;;;;15.00;8.35;;;18.30;58.70;;;;;;4913121;28;93894;-66
2022/03/29 07:27:05;;;;;;;14.75;9.23;;;18.30;58.70;;;;;;4896448;28;92514;-66
2022/03/29 07:29:33;;;;;;;13.27;9.18;;;18.30;58.80;;;;;;4914008;28;92501;-66
2022/03/29 07:31:58;;;;;;;15.82;8.90;;;18.30;58.70;;;;;;4895037;28;94886;-66
2022/03/29 07:34:24;;;;;;;13.95;9.07;;;18.30;58.70;;;;;;4913400;28;93976;-66
2022/03/29 07:36:50;;;;;;;14.13;9.20;;;18.30;58.60;;;;;;4912627;28;92741;-66
2022/03/29 07:39:16;;;;;;;14.68;9.48;;;18.30;58.50;;;;;;4912468;28;92557;-66
2022/03/29 07:41:43;;;;;;;13.85;9.20;;;18.20;58.50;;;;;;4910522;28;99578;-66
2022/03/29 07:44:08;;;;;;;14.65;9.52;;;18.20;58.20;;;;;;4912299;28;96311;-67
2022/03/29 07:46:34;;;;;;;14.30;9.15;;;18.20;58.10;;;;;;4913201;28;92716;-67
2022/03/29 07:49:00;;;;;;;14.15;9.70;;;18.20;58.10;;;;;;4914386;28;92505;-66
2022/03/29 07:51:25;;;;;;;14.65;9.15;;;18.20;58.10;;;;;;4912111;28;93260;-65
2022/03/29 07:53:51;;;;;;;20.17;9.98;;;18.20;58.10;;;;;;4912827;28;93799;-65
2022/03/29 07:56:17;;;;;;;12.48;9.95;;;18.20;58.10;;;;;;4913637;28;92440;-65
2022/03/29 07:58:43;;;;;;;15.15;10.13;;;18.20;58.10;;;;;;4913154;28;92005;-66
2022/03/29 08:01:09;;;;;;;13.93;9.70;;;18.20;58.10;;;;;;4911992;28;93619;-65
2022/03/29 08:03:35;;;;;;;16.35;10.32;;;18.30;58.10;;;;;;4912493;28;93281;-65
2022/03/29 08:06:04;;;;;;;13.38;9.55;;;18.30;58.10;;;;;;4911635;28;94915;-65
2022/03/29 08:08:32;;;;;;;13.20;9.70;;;18.20;57.70;;;;;;4913986;28;92818;-66
2022/03/29 08:10:58;;;;;;;12.82;9.10;;;18.20;57.60;;;;;;4912336;28;94192;-69
2022/03/29 08:13:25;;;;;;;13.82;10.07;;;18.20;57.50;;;;;;4911615;28;93045;-65
2022/03/29 08:15:56;;;;;;;13.25;9.57;;;18.20;57.40;;;;;;4912693;28;92459;-65
2022/03/29 08:18:22;;;;;;;15.07;10.30;;;18.20;57.10;;;;;;4912884;28;92965;-67
2022/03/29 08:20:48;;;;;;;25.77;11.60;;;18.10;57.00;;;;;;4911655;28;93411;-65
2022/03/29 08:23:14;;;;;;;19.17;10.25;;;18.10;57.00;;;;;;4911170;28;94338;-66
2022/03/29 08:25:43;;;;;;;14.63;10.82;;;18.10;56.80;;;;;;4912398;28;93128;-66
2022/03/29 08:28:09;;;;;;;15.95;10.40;;;18.10;56.60;;;;;;4912485;28;92700;-67
2022/03/29 08:30:36;;;;;;;16.17;9.90;;;18.10;56.50;;;;;;4911706;28;95960;-66
2022/03/29 08:33:02;;;;;;;16.13;10.55;;;18.10;56.70;;;;;;4913061;28;95307;-67
2022/03/29 08:35:32;;;;;;;14.45;10.77;;;18.10;56.60;;;;;;4911973;28;92649;-68
2022/03/29 08:37:58;;;;;;;18.40;10.80;;;18.10;56.20;;;;;;4911726;28;93059;-67
2022/03/29 08:40:26;;;;;;;20.25;10.50;;;18.10;56.10;;;;;;4910420;28;94361;-69
2022/03/29 08:42:58;;;;;;;15.60;10.57;;;18.10;56.00;;;;;;4911435;28;94076;-66
2022/03/29 08:45:31;;;;;;;14.57;10.57;;;18.10;55.80;;;;;;4911213;28;92656;-70
2022/03/29 08:47:59;;;;;;;18.77;10.70;;;18.10;55.60;;;;;;4912081;28;92317;-66
2022/03/29 08:50:29;;;;;;;16.83;10.70;;;18.00;55.50;;;;;;4910164;28;94502;-66
2022/03/29 08:52:55;;;;;;;16.35;10.93;;;18.10;55.40;;;;;;4910261;28;94326;-66
2022/03/29 08:55:22;;;;;;;16.45;11.02;;;18.00;55.30;;;;;;4910807;28;95241;-65
2022/03/29 08:57:52;;;;;;;14.85;10.90;;;18.00;55.20;;;;;;4911174;28;92932;-66
2022/03/29 09:00:18;;;;;;;15.35;11.38;;;18.00;55.10;;;;;;4911754;28;94187;-66
2022/03/29 09:02:44;;;;;;;14.27;10.90;;;18.00;55.00;;;;;;4912374;28;94507;-66
2022/03/29 09:05:15;;;;;;;16.27;11.05;;;18.00;55.00;;;;;;4912430;28;92511;-66
2022/03/29 09:08:03;;;;;;;18.38;10.73;;;18.00;54.80;;;;;;4911919;28;92623;-66
2022/03/29 09:10:40;;;;;;;17.70;11.38;;;18.00;54.80;;;;;;4910941;28;93429;-66
2022/03/29 09:13:23;;;;;;;14.80;10.82;;;18.00;54.80;;;;;;4893622;28;94137;-66
2022/03/29 09:15:55;;;;;;;16.58;11.15;;;18.00;54.60;;;;;;4911342;28;92578;-69
2022/03/29 09:18:22;;;;;;;14.97;10.63;;;17.90;54.50;;;;;;4911267;28;92842;-67
2022/03/29 09:21:08;;;;;;;12.63;10.98;;;17.90;54.50;;;;;;4891868;28;96633;-66
2022/03/29 09:23:35;;;;;;;14.38;10.95;;;17.90;54.30;;;;;;4910073;28;96541;-66
2022/03/29 09:26:02;;;;;;;16.40;11.07;;;17.90;54.40;;;;;;4910944;28;92591;-66
2022/03/29 09:28:33;;;;;;;14.32;10.93;;;17.90;54.30;;;;;;4910402;28;92619;-66
2022/03/29 09:30:59;;;;;;;15.60;11.23;;;17.90;54.30;;;;;;4909730;28;94329;-66
2022/03/29 09:33:33;;;;;;;13.82;10.30;;;17.90;54.30;;;;;;4910240;28;92852;-66
2022/03/29 09:36:07;;;;;;;14.25;10.05;;;17.90;54.20;;;;;;4912054;28;93013;-66
2022/03/29 09:38:36;;;;;;;13.63;11.20;;;17.90;54.10;;;;;;4911310;28;92336;-66
2022/03/29 09:41:04;;;;;;;15.55;11.20;;;17.90;54.10;;;;;;4892869;28;95492;-66
2022/03/29 09:43:31;;;;;;;13.68;10.43;;;17.90;54.00;;;;;;4910743;28;93988;-67
2022/03/29 09:46:01;;;;;;;16.73;11.00;;;17.90;53.90;;;;;;4892724;28;95333;-66
2022/03/29 09:48:35;;;;;;;15.80;10.98;;;17.90;53.80;;;;;;4910163;28;92678;-67
2022/03/29 09:51:10;;;;;;;16.80;10.98;;;17.90;53.80;;;;;;4910540;28;94142;-66
2022/03/29 09:53:40;;;;;;;13.02;10.23;;;17.90;53.80;;;;;;4910578;28;94435;-65
2022/03/29 09:56:11;;;;;;;14.18;10.30;;;18.00;53.80;;;;;;4910277;28;92567;-66
2022/03/29 09:58:38;;;;;;;12.43;10.18;;;18.00;53.80;;;;;;4910328;28;92800;-66
2022/03/29 10:01:05;;;;;;;14.23;10.70;;;18.00;53.70;;;;;;4911065;28;93784;-66
2022/03/29 10:03:33;;;;;;;13.43;10.05;;;18.00;53.60;;;;;;4913694;28;93911;-65
2022/03/29 10:06:03;;;;;;;14.73;10.82;;;18.00;53.60;;;;;;4913886;28;92600;-66
2022/03/29 10:11:18;;;;;;;13.05;10.60;;;18.10;53.30;;;;;;4913232;28;95031;-66
2022/03/29 10:13:45;;;;;;;14.52;10.23;;;18.10;53.20;;;;;;4913751;28;96279;-67
2022/03/29 10:16:14;;;;;;;13.50;10.30;;;18.10;53.20;;;;;;4915581;28;92972;-67
2022/03/29 10:18:41;;;;;;;12.25;9.75;;;18.10;53.00;;;;;;4913768;28;92559;-66
2022/03/29 10:21:12;;;;;;;14.40;10.73;;;18.10;53.00;;;;;;4914050;28;94302;-67
2022/03/29 10:23:39;;;;;;;12.57;9.65;;;18.10;52.80;;;;;;4913467;28;93234;-66
2022/03/29 10:26:06;;;;;;;12.60;10.40;;;18.10;52.70;;;;;;4913378;28;92574;-69
2022/03/29 10:28:31;;;;;;;13.63;10.20;;;18.10;52.60;;;;;;4914748;28;92339;-67
2022/03/29 10:30:58;;;;;;;12.80;9.88;;;18.10;52.60;;;;;;4914229;28;93155;-67
2022/03/29 10:33:24;;;;;;;14.00;10.50;;;18.20;52.50;;;;;;4914319;28;93244;-67
2022/03/29 10:35:59;;;;;;;13.82;9.88;;;18.20;52.40;;;;;;4911503;28;95321;-67
2022/03/29 10:38:43;;;;;;;22.90;13.10;;;18.20;52.40;;;;;;4913914;28;92545;-67
2022/03/29 10:41:27;;;;;;;19.33;12.57;;;18.20;52.30;;;;;;4914568;28;93548;-66
2022/03/29 10:44:14;;;;;;;18.20;12.57;;;18.20;52.70;;;;;;4913103;28;94281;-66
2022/03/29 10:46:45;;;;;;;16.50;12.32;;;18.20;52.40;;;;;;4914240;28;92808;-66
2022/03/29 10:49:20;;;;;;;20.55;12.90;;;18.30;52.20;;;;;;4913377;28;92956;-66
2022/03/29 10:51:48;;;;;;;17.70;12.05;;;18.30;52.20;;;;;;4913339;28;94126;-66
2022/03/29 10:54:30;;;;;;;16.80;12.43;;;18.30;52.00;;;;;;4912507;28;93602;-66
2022/03/29 10:56:57;;;;;;;16.60;12.20;;;18.30;51.80;;;;;;4913164;28;92475;-68
2022/03/29 10:59:24;;;;;;;17.52;12.00;;;18.30;51.90;;;;;;4913796;28;92972;-66
2022/03/29 11:02:19;;;;;;;15.00;11.60;;;18.30;51.80;;;;;;4912289;28;95436;-66
2022/03/29 11:05:04;;;;;;;18.05;11.30;;;18.40;51.70;;;;;;4912920;28;95862;-66
2022/03/29 11:07:37;;;;;;;15.32;11.75;;;18.30;51.60;;;;;;4894789;28;92572;-66
2022/03/29 11:10:15;;;;;;;17.10;11.43;;;18.30;51.60;;;;;;4912294;28;92858;-66
2022/03/29 11:12:45;;;;;;;18.17;13.05;;;18.30;51.60;;;;;;4912617;28;92554;-66
2022/03/29 11:15:27;;;;;;;16.02;11.48;;;18.30;51.60;;;;;;4912332;28;94899;-66
2022/03/29 11:17:56;;;;;;;17.20;12.15;;;18.30;52.50;;;;;;4912830;28;92400;-69
2022/03/29 11:20:29;;;;;;;18.05;12.00;;;18.30;51.70;;;;;;4913276;28;92151;-69
2022/03/29 11:23:11;;;;;;;16.55;11.57;;;18.30;51.90;;;;;;4912638;28;94029;-66
2022/03/29 11:25:43;;;;;;;14.70;11.38;;;18.30;52.80;;;;;;4913882;28;94681;-67
2022/03/29 11:28:11;;;;;;;;;;;18.30;51.80;;;;;;4912153;28;95382;-66
2022/03/29 11:30:36;;;;;;;15.30;11.30;;;18.30;51.90;;;;;;4913948;28;92580;-66
2022/03/29 11:33:05;;;;;;;16.27;12.30;;;18.30;52.00;;;;;;4911871;28;94216;-66
2022/03/29 11:35:36;;;;;;;16.05;11.75;;;18.30;51.90;;;;;;4913100;28;94061;-67
2022/03/29 11:38:16;;;;;;;16.77;11.13;;;18.30;51.80;;;;;;4912841;28;93041;-66
2022/03/29 11:40:42;;;;;;;13.65;10.57;;;18.30;51.80;;;;;;4912913;28;92590;-66
2022/03/29 11:43:19;;;;;;;14.38;10.80;;;18.30;51.90;;;;;;4911927;28;93119;-66
2022/03/29 11:45:49;;;;;;;14.35;11.07;;;18.30;51.90;;;;;;4912662;28;93972;-66
2022/03/29 11:48:20;;;;;;;13.40;11.43;;;18.30;51.90;;;;;;4911675;28;92893;-66
2022/03/29 11:50:52;;;;;;;13.35;10.90;;;18.30;51.90;;;;;;4912814;28;92523;-66
2022/03/29 11:53:33;;;;;;;15.73;11.18;;;18.20;51.90;;;;;;4910644;28;95880;-66
2022/03/29 11:56:02;;;;;;;14.50;10.80;;;18.30;52.00;;;;;;4912608;28;96306;-66
2022/03/29 11:58:39;;;;;;;13.73;11.15;;;18.30;52.00;;;;;;4912804;28;93084;-66
2022/03/29 12:01:09;;;;;;;13.70;10.85;;;18.30;51.90;;;;;;4912468;28;93422;-66
2022/03/29 12:03:56;;;;;;;13.95;10.65;;;18.20;51.90;;;;;;4910765;28;93690;-66
2022/03/29 12:06:29;;;;;;;14.18;11.05;;;18.30;51.80;;;;;;4912001;28;93237;-68
2022/03/29 12:09:02;;;;;;;;;;;18.20;51.70;;;;;;4913532;28;92753;-65
2022/03/29 12:11:31;;;;;;;15.35;11.65;;;18.20;51.90;;;;;;4914200;28;92121;-66
2022/03/29 12:14:15;;;;;;;14.60;10.75;;;18.20;51.90;;;;;;4910874;28;94242;-65
2022/03/29 12:16:52;;;;;;;13.73;11.00;;;18.20;51.70;;;;;;4912049;28;94429;-67
2022/03/29 12:19:27;;;;;;;14.10;10.50;;;18.30;51.80;;;;;;4909318;28;97644;-67
2022/03/29 12:21:57;;;;;;;14.45;11.20;;;18.30;51.80;;;;;;4911411;28;92973;-66
2022/03/29 12:24:25;;;;;;;12.95;10.73;;;18.30;51.70;;;;;;4911567;28;95258;-68
2022/03/29 12:26:55;;;;;;;13.13;10.23;;;18.30;51.70;;;;;;4911044;28;93028;-66
2022/03/29 12:29:25;;;;;;;14.30;11.27;;;18.30;51.60;;;;;;4912524;28;92585;-66
2022/03/29 12:31:53;;;;;;;15.30;11.50;;;18.30;51.60;;;;;;4910936;28;92636;-66
2022/03/29 12:34:24;;;;;;;14.20;10.40;;;18.30;51.50;;;;;;4910633;28;93076;-67
2022/03/29 12:36:56;;;;;;;13.60;10.88;;;18.30;51.50;;;;;;4912238;28;93298;-66
2022/03/29 12:39:22;;;;;;;13.15;10.70;;;18.30;51.40;;;;;;4911979;28;92668;-66
2022/03/29 12:41:54;;;;;;;13.15;10.88;;;18.30;51.40;;;;;;4911307;28;92991;-67
2022/03/29 12:44:46;;;;;;;12.73;10.13;;;18.40;52.30;;;;;;4909260;28;96496;-66
2022/03/29 12:47:14;;;;;;;13.57;10.18;;;18.40;51.40;;;;;;4911347;28;97008;-65
2022/03/29 12:49:41;;;;;;;13.88;10.73;;;18.40;51.40;;;;;;4910474;28;92536;-70
2022/03/29 12:52:09;;;;;;;12.10;9.88;;;18.40;51.40;;;;;;4912142;28;93110;-68
2022/03/29 12:54:39;;;;;;;12.60;10.07;;;18.30;51.30;;;;;;4913671;28;93496;-66
2022/03/29 12:57:10;;;;;;;11.65;10.32;;;18.30;51.30;;;;;;4912181;28;93033;-65
2022/03/29 12:59:40;;;;;;;13.70;10.10;;;18.30;51.20;;;;;;4911564;28;92550;-66
2022/03/29 13:02:17;;;;;;;12.68;9.77;;;18.30;51.30;;;;;;4912171;28;91836;-66
2022/03/29 13:04:58;;;;;;;11.50;9.43;;;18.40;51.20;;;;;;4911315;28;94556;-65
2022/03/29 13:07:57;;;;;;;12.60;10.00;;;18.40;51.10;;;;;;4910885;28;94343;-66
2022/03/29 13:10:44;;;;;;;13.13;9.75;;;18.40;51.20;;;;;;4909042;28;94947;-66
2022/03/29 13:13:17;;;;;;;11.98;10.27;;;18.40;51.00;;;;;;4910721;28;92738;-66
2022/03/29 13:15:55;;;;;;;13.98;10.63;;;18.40;51.00;;;;;;4910351;28;94143;-66
2022/03/29 13:18:32;;;;;;;13.15;10.80;;;18.40;51.00;;;;;;4910170;28;93074;-66
2022/03/29 13:21:19;;;;;;;11.18;9.30;;;18.40;50.90;;;;;;4911367;28;93779;-68
2022/03/29 13:23:49;;;;;;;14.27;10.57;;;18.40;50.90;;;;;;4911830;28;92995;-66
2022/03/29 13:26:26;;;;;;;13.35;10.13;;;18.40;50.90;;;;;;4911866;28;95484;-67
2022/03/29 13:28:53;;;;;;;12.88;9.43;;;18.40;50.80;;;;;;4910788;28;94062;-65
2022/03/29 13:31:27;;;;;;;13.07;9.93;;;18.40;50.90;;;;;;4911512;28;92478;-66
2022/03/29 13:33:54;;;;;;;12.93;9.68;;;18.50;50.80;;;;;;4912091;28;92479;-66
2022/03/29 13:36:24;;;;;;;11.75;9.55;;;18.50;50.80;;;;;;4910060;28;97478;-66
2022/03/29 13:38:52;;;;;;;13.65;10.15;;;18.50;50.70;;;;;;4915447;28;95055;-66
2022/03/29 13:41:18;;;;;;;12.48;9.73;;;18.50;50.70;;;;;;4914994;28;92465;-67
2022/03/29 13:43:45;;;;;;;11.98;9.30;;;18.50;50.70;;;;;;4915537;28;92970;-66
2022/03/29 13:46:12;;;;;;;12.23;9.55;;;18.50;50.60;;;;;;4914963;28;92988;-66
2022/03/29 13:48:39;;;;;;;13.35;9.50;;;18.50;50.60;;;;;;4914720;28;93449;-66
2022/03/29 13:51:10;;;;;;;12.70;9.98;;;18.50;50.50;;;;;;4914903;28;92447;-66